This is the latest recevied weather packets stored in our database for station/object N3FAA. If no packets are shown the sender has not sent any weather packets the latest 10 day(s).
| Time | Temp. | Humidity | Pressure | Rain* | Wind** | Luminosity | Snow |
|---|---|---|---|---|---|---|---|
| 1777494141 | 23.89° C | 21% | 1013.1 hPa | 0 mm | - | 753 W/m² | - |
| 1777493838 | 23.33° C | 21% | 1013.1 hPa | 0 mm | - | 746 W/m² | - |
| 1777493537 | 23.89° C | 21% | 1013.1 hPa | 0 mm | - | 742 W/m² | - |
| 1777493234 | 23.89° C | 19% | 1013.1 hPa | 0 mm | - | 734 W/m² | - |
| 1777492930 | 23.89° C | 22% | 1013.1 hPa | 0 mm | - | 731 W/m² | - |
| 1777492627 | 23.89° C | 21% | 1013.3 hPa | 0 mm | - | 743 W/m² | - |
| 1777492322 | 23.33° C | 21% | 1013.3 hPa | 0 mm | - | 771 W/m² | - |
| 1777492019 | 23.33° C | 26% | 1013.3 hPa | 0 mm | - | 769 W/m² | - |
| 1777491715 | 23.89° C | 26% | 1013.4 hPa | 0 mm | - | 804 W/m² | - |
| 1777491413 | 23.33° C | 24% | 1013.5 hPa | 0 mm | - | 851 W/m² | - |
| 1777491110 | 22.78° C | 27% | 1013.6 hPa | 0 mm | - | 888 W/m² | - |
| 1777490805 | 22.78° C | 24% | 1013.5 hPa | 0 mm | - | 887 W/m² | - |
| 1777490502 | 23.33° C | 24% | 1013.8 hPa | 0 mm | - | 843 W/m² | - |
| 1777490198 | 23.89° C | 26% | 1013.8 hPa | 0 mm | - | 826 W/m² | - |
| 1777489896 | 23.33° C | 27% | 1014.1 hPa | 0 mm | - | 862 W/m² | - |
| 1777489593 | 22.78° C | 29% | 1014 hPa | 0 mm | - | 897 W/m² | - |
| 1777489289 | 22.22° C | 29% | 1014.3 hPa | 0 mm | - | 892 W/m² | - |
| 1777488987 | 22.22° C | 30% | 1014.3 hPa | 0 mm | - | 908 W/m² | - |
| 1777488684 | 22.22° C | 31% | 1014.1 hPa | 0 mm | - | 907 W/m² | - |
| 1777488381 | 22.22° C | 31% | 1014.1 hPa | 0 mm | - | 926 W/m² | - |
| 1777488080 | 22.22° C | 31% | 1014.1 hPa | 0 mm | - | 947 W/m² | - |
| 1777487777 | 22.78° C | 31% | 1014.4 hPa | 0 mm | - | 954 W/m² | - |
| 1777487475 | 21.67° C | 32% | 1014.6 hPa | 0 mm | - | 982 W/m² | - |
| 1777487172 | 21.67° C | 32% | 1014.7 hPa | 0 mm | - | 1007 W/m² | - |
| 1777486868 | 22.22° C | 30% | 1014.5 hPa | 0 mm | - | 1012 W/m² | - |
* Rain latest hour (hover to see other rain measurements)
** Current wind speed in m/s (hover to see current wind gust speed)